createdAt,value
2019-04-01T00:01:17.569Z,204.20
2019-04-01T00:03:46.152Z,191.23
2019-04-01T00:06:14.844Z,183.30
2019-04-01T00:08:43.329Z,168.67
2019-04-01T00:11:11.922Z,161.07
2019-04-01T00:13:40.468Z,149.67
2019-04-01T00:16:09.082Z,128.70
2019-04-01T00:18:37.585Z,134.47
2019-04-01T00:21:06.128Z,126.90
2019-04-01T00:23:34.673Z,121.33
2019-04-01T00:26:03.225Z,129.87
2019-04-01T00:28:33.099Z,110.73
2019-04-01T00:31:01.741Z,113.83
2019-04-01T00:33:30.368Z,120.47
2019-04-01T00:35:58.933Z,97.90
2019-04-01T00:38:27.413Z,97.23
2019-04-01T00:40:55.958Z,90.17
2019-04-01T00:43:26.225Z,88.00
2019-04-01T00:45:56.415Z,92.03
2019-04-01T00:48:24.996Z,95.80
2019-04-01T00:50:53.618Z,101.50
2019-04-01T00:53:22.164Z,84.43
2019-04-01T00:55:50.709Z,94.47
2019-04-01T00:58:19.186Z,88.87
2019-04-01T01:00:48.009Z,91.73
2019-04-01T01:03:16.590Z,89.33
2019-04-01T01:05:45.085Z,102.03
2019-04-01T01:08:13.589Z,87.90
2019-04-01T01:10:42.202Z,94.40
2019-04-01T01:13:10.881Z,97.67
2019-04-01T01:15:39.434Z,86.30
2019-04-01T01:18:07.921Z,75.17
2019-04-01T01:20:36.575Z,77.00
2019-04-01T01:23:05.126Z,75.10
2019-04-01T01:25:33.811Z,68.63
2019-04-01T01:28:02.613Z,68.90
2019-04-01T01:30:31.186Z,62.60
2019-04-01T01:32:59.730Z,67.50
2019-04-01T01:35:28.430Z,65.17
2019-04-01T01:37:56.979Z,68.00
2019-04-01T01:40:25.527Z,59.13
2019-04-01T01:42:54.322Z,72.83
2019-04-01T01:45:22.895Z,66.70
2019-04-01T01:47:51.452Z,50.10
2019-04-01T01:50:20.034Z,50.87
2019-04-01T01:52:48.582Z,45.47
2019-04-01T01:55:17.197Z,47.80
2019-04-01T01:57:45.694Z,53.10
2019-04-01T02:00:15.807Z,36.97
2019-04-01T02:02:45.964Z,37.13
2019-04-01T02:05:14.683Z,38.47
2019-04-01T02:07:44.978Z,36.37
2019-04-01T02:10:13.998Z,32.37
2019-04-01T02:12:42.573Z,33.87
2019-04-01T02:15:11.195Z,32.63
2019-04-01T02:17:39.772Z,38.43
2019-04-01T02:20:08.588Z,27.03
2019-04-01T02:22:37.211Z,40.17
2019-04-01T02:25:05.989Z,33.33
2019-04-01T02:27:34.481Z,26.17
2019-04-01T02:30:03.162Z,26.33
2019-04-01T02:32:31.711Z,24.60
2019-04-01T02:35:00.499Z,20.47
2019-04-01T02:37:29.034Z,23.83
2019-04-01T02:39:57.570Z,31.93
2019-04-01T02:42:26.342Z,24.67
2019-04-01T02:44:54.968Z,28.17
2019-04-01T02:47:23.579Z,24.33
2019-04-01T02:49:52.176Z,25.80
2019-04-01T02:52:20.936Z,26.53
2019-04-01T02:54:49.627Z,24.03
2019-04-01T02:57:18.209Z,26.03
2019-04-01T02:59:46.749Z,31.60
2019-04-01T03:02:16.832Z,23.47
2019-04-01T03:04:46.972Z,32.23
2019-04-01T03:07:15.665Z,27.27
2019-04-01T03:09:44.218Z,19.80
2019-04-01T03:12:12.854Z,30.57
2019-04-01T03:14:41.394Z,36.27
2019-04-01T03:17:10.156Z,28.97
2019-04-01T03:19:38.855Z,28.40
2019-04-01T03:22:07.497Z,25.20
2019-04-01T03:24:36.060Z,22.90
2019-04-01T03:27:04.676Z,36.83
2019-04-01T03:29:33.316Z,26.23
2019-04-01T03:32:01.986Z,25.23
2019-04-01T03:34:30.631Z,31.60
2019-04-01T03:36:59.223Z,30.40
2019-04-01T03:39:27.957Z,25.10
2019-04-01T03:41:56.575Z,38.93
2019-04-01T03:44:25.186Z,35.17
2019-04-01T03:46:53.926Z,31.67
2019-04-01T03:49:22.474Z,24.07
2019-04-01T03:51:51.013Z,25.50
2019-04-01T03:54:19.538Z,29.73
2019-04-01T03:56:49.542Z,24.00
2019-04-01T03:59:18.146Z,29.43
2019-04-01T04:01:46.726Z,26.60
2019-04-01T04:04:15.405Z,22.67
2019-04-01T04:06:44.012Z,25.00
2019-04-01T04:09:12.525Z,25.23
2019-04-01T04:11:41.069Z,26.47
2019-04-01T04:14:09.689Z,18.03
2019-04-01T04:16:38.254Z,26.00
2019-04-01T04:19:06.969Z,28.33
2019-04-01T04:21:35.523Z,23.83
2019-04-01T04:24:04.162Z,24.33
2019-04-01T04:26:32.828Z,28.77
2019-04-01T04:29:01.321Z,49.27
2019-04-01T04:31:29.891Z,57.53
2019-04-01T04:33:58.509Z,34.43
2019-04-01T04:36:27.258Z,71.93
2019-04-01T04:38:55.938Z,80.07
2019-04-01T04:41:24.808Z,94.47
2019-04-01T04:43:53.420Z,87.60
2019-04-01T04:46:22.133Z,76.00
2019-04-01T04:48:50.617Z,86.87
2019-04-01T04:51:19.162Z,63.87
2019-04-01T04:53:47.819Z,74.77
2019-04-01T04:56:16.430Z,64.00
2019-04-01T04:58:44.987Z,67.50
2019-04-01T05:01:13.635Z,58.73
2019-04-01T05:03:42.268Z,61.63
2019-04-01T05:06:10.870Z,64.57
2019-04-01T05:08:39.518Z,76.70
2019-04-01T05:11:08.310Z,55.23
2019-04-01T05:13:38.075Z,50.03
2019-04-01T05:16:06.633Z,51.03
2019-04-01T05:18:35.194Z,48.97
2019-04-01T05:21:04.006Z,74.20
2019-04-01T05:23:32.862Z,86.17
2019-04-01T05:26:01.875Z,70.47
2019-04-01T05:28:30.517Z,74.97
2019-04-01T05:31:00.602Z,85.63
2019-04-01T05:33:29.440Z,72.53
2019-04-01T05:35:58.114Z,75.77
2019-04-01T05:38:27.000Z,76.90
2019-04-01T05:40:55.718Z,75.47
2019-04-01T05:43:24.369Z,79.00
2019-04-01T05:45:53.050Z,49.27
2019-04-01T05:48:21.661Z,56.33
2019-04-01T05:50:52.013Z,46.43
2019-04-01T05:53:20.636Z,45.20
2019-04-01T05:55:49.521Z,32.27
2019-04-01T05:58:18.136Z,35.63
2019-04-01T06:00:48.440Z,29.37
2019-04-01T06:03:17.045Z,34.80
2019-04-01T06:05:45.649Z,31.27
2019-04-01T06:08:14.597Z,30.57
2019-04-01T06:10:43.275Z,21.30
2019-04-01T06:13:12.258Z,35.53
2019-04-01T06:15:40.875Z,34.53
2019-04-01T06:18:09.598Z,22.83
2019-04-01T06:20:38.302Z,24.00
2019-04-01T06:23:06.997Z,33.73
2019-04-01T06:25:35.818Z,25.50
2019-04-01T06:28:04.445Z,30.23
2019-04-01T06:30:33.102Z,22.87
2019-04-01T06:33:01.807Z,34.17
2019-04-01T06:35:30.520Z,32.87
2019-04-01T06:37:59.205Z,45.80
2019-04-01T06:40:27.886Z,28.50
2019-04-01T06:42:56.426Z,27.33
2019-04-01T06:45:25.110Z,31.83
2019-04-01T06:47:53.718Z,29.07
2019-04-01T06:50:22.347Z,32.90
2019-04-01T06:52:50.970Z,30.57
2019-04-01T06:55:19.651Z,27.77
2019-04-01T06:57:48.357Z,27.60
2019-04-01T07:00:16.966Z,30.97
2019-04-01T07:02:45.641Z,35.00
2019-04-01T07:05:14.333Z,29.70
2019-04-01T07:07:43.010Z,40.87
2019-04-01T07:10:11.759Z,39.07
2019-04-01T07:12:40.428Z,39.53
2019-04-01T07:15:09.213Z,31.47
2019-04-01T07:17:37.817Z,27.73
2019-04-01T07:20:08.773Z,30.33
2019-04-01T07:22:36.895Z,28.47
2019-04-01T07:25:05.707Z,28.53
2019-04-01T07:27:34.430Z,29.50
2019-04-01T07:30:03.380Z,33.07
2019-04-01T07:32:32.006Z,29.93
2019-04-01T07:35:00.650Z,27.63
2019-04-01T07:37:29.255Z,29.10
2019-04-01T07:39:57.944Z,26.63
2019-04-01T07:42:26.664Z,26.13
2019-04-01T07:44:56.646Z,22.63
2019-04-01T07:47:25.313Z,19.20
2019-04-01T07:49:54.014Z,28.63
2019-04-01T07:52:22.536Z,31.97
2019-04-01T07:54:51.178Z,26.93
2019-04-01T07:57:19.799Z,17.50
2019-04-01T07:59:48.483Z,20.07
2019-04-01T08:02:17.209Z,19.73
2019-04-01T08:04:45.828Z,25.33
2019-04-01T08:07:15.543Z,25.50
2019-04-01T08:09:44.272Z,21.63
2019-04-01T08:12:14.594Z,20.63
2019-04-01T08:14:45.120Z,15.37
2019-04-01T08:17:13.843Z,13.43
2019-04-01T08:19:42.393Z,17.47
2019-04-01T08:22:12.014Z,14.97
2019-04-01T08:24:42.979Z,22.57
2019-04-01T08:27:11.675Z,20.70
2019-04-01T08:29:40.355Z,34.03
2019-04-01T08:32:09.610Z,16.53
2019-04-01T08:34:38.717Z,50.20
2019-04-01T08:37:07.406Z,15.30
2019-04-01T08:39:36.120Z,18.77
2019-04-01T08:42:04.803Z,14.50
2019-04-01T08:44:33.427Z,13.40
2019-04-01T08:47:02.040Z,10.50
2019-04-01T08:49:30.731Z,13.90
2019-04-01T08:51:59.529Z,10.87
2019-04-01T08:54:28.333Z,13.87
2019-04-01T08:56:57.010Z,8.47
2019-04-01T08:59:25.738Z,10.50
2019-04-01T09:01:54.431Z,11.53
2019-04-01T09:04:23.307Z,10.93
2019-04-01T09:06:51.997Z,8.37
2019-04-01T09:09:23.344Z,6.23
2019-04-01T09:11:54.132Z,12.17
2019-04-01T09:14:23.719Z,7.93
2019-04-01T09:16:52.527Z,8.50
2019-04-01T09:19:21.208Z,6.87
2019-04-01T09:21:50.838Z,4.57
2019-04-01T09:24:19.497Z,11.87
2019-04-01T09:26:48.032Z,9.20
2019-04-01T09:29:16.654Z,4.93
2019-04-01T09:31:45.361Z,4.87
2019-04-01T09:34:13.985Z,4.73
2019-04-01T09:36:42.603Z,6.10
2019-04-01T09:39:11.238Z,4.30
2019-04-01T09:41:39.855Z,5.40
2019-04-01T09:44:08.390Z,4.93
2019-04-01T09:46:37.106Z,3.90
2019-04-01T09:49:05.792Z,5.23
2019-04-01T09:51:47.812Z,11.30
2019-04-01T09:54:04.760Z,3.77
2019-04-01T09:56:33.380Z,7.77
2019-04-01T09:59:02.068Z,5.23
2019-04-01T10:01:30.705Z,8.10
2019-04-01T10:03:59.383Z,7.50
2019-04-01T10:06:28.002Z,10.30
2019-04-01T10:08:56.626Z,7.70
2019-04-01T10:11:25.246Z,4.60
2019-04-01T10:13:53.968Z,8.03
2019-04-01T10:16:22.584Z,8.10
2019-04-01T10:18:51.206Z,5.97
2019-04-01T10:21:19.865Z,13.93
2019-04-01T10:23:48.469Z,3.70
2019-04-01T10:26:17.201Z,4.03
2019-04-01T10:28:45.776Z,7.50
2019-04-01T10:31:14.393Z,4.40
2019-04-01T10:33:43.059Z,4.37
2019-04-01T10:36:11.612Z,3.10
2019-04-01T10:38:40.226Z,4.20
2019-04-01T10:41:08.792Z,6.97
2019-04-01T10:43:37.334Z,9.63
2019-04-01T10:46:05.942Z,8.70
2019-04-01T10:48:34.458Z,10.37
2019-04-01T10:51:03.041Z,7.00
2019-04-01T10:53:31.609Z,9.73
2019-04-01T10:56:00.518Z,4.77
2019-04-01T10:58:29.197Z,6.03
2019-04-01T11:00:57.827Z,5.93
2019-04-01T11:03:26.385Z,21.27
2019-04-01T11:05:54.962Z,9.63
2019-04-01T11:08:23.676Z,5.13
2019-04-01T11:10:52.302Z,14.30
2019-04-01T11:13:21.863Z,5.20
2019-04-01T11:15:50.818Z,3.57
2019-04-01T11:18:19.471Z,5.23
2019-04-01T11:20:49.010Z,8.00
2019-04-01T11:23:17.557Z,8.60
2019-04-01T11:25:46.129Z,11.50
2019-04-01T11:28:14.928Z,11.07
2019-04-01T11:30:43.608Z,7.43
2019-04-01T11:33:12.337Z,15.10
2019-04-01T11:35:42.387Z,6.07
2019-04-01T11:38:11.006Z,2.90
2019-04-01T11:40:39.598Z,6.20
2019-04-01T11:43:08.161Z,4.27
2019-04-01T11:45:36.803Z,7.67
2019-04-01T11:48:05.541Z,4.77
2019-04-01T11:50:34.244Z,19.73
2019-04-01T11:53:04.176Z,2.37
2019-04-01T11:55:33.790Z,5.50
2019-04-01T11:58:02.267Z,4.50
2019-04-01T12:00:30.873Z,58.23
2019-04-01T12:02:59.458Z,5.17
2019-04-01T12:05:28.021Z,4.53
2019-04-01T12:07:56.693Z,6.33
2019-04-01T12:10:25.261Z,6.23
2019-04-01T12:12:53.798Z,7.97
2019-04-01T12:15:22.343Z,6.10
2019-04-01T12:17:50.990Z,7.33
2019-04-01T12:20:19.719Z,6.47
2019-04-01T12:22:48.256Z,2.60
2019-04-01T12:25:16.968Z,5.07
2019-04-01T12:27:45.634Z,5.27
2019-04-01T12:30:14.478Z,5.37
2019-04-01T12:32:43.126Z,3.83
2019-04-01T12:35:15.652Z,4.03
2019-04-01T12:37:45.778Z,4.43
2019-04-01T12:40:14.697Z,7.03
2019-04-01T12:42:43.302Z,3.83
2019-04-01T12:45:12.089Z,3.87
2019-04-01T12:47:43.227Z,4.00
2019-04-01T12:50:11.247Z,5.90
2019-04-01T12:52:39.934Z,5.40
2019-04-01T12:55:08.781Z,8.40
2019-04-01T12:57:37.471Z,12.47
2019-04-01T13:00:09.873Z,5.13
2019-04-01T13:02:38.519Z,4.33
2019-04-01T13:05:07.432Z,4.17
2019-04-01T13:07:36.243Z,9.40
2019-04-01T13:10:06.570Z,6.57
2019-04-01T13:12:35.253Z,3.97
2019-04-01T13:15:05.299Z,8.10
2019-04-01T13:17:33.866Z,6.17
2019-04-01T13:20:02.550Z,6.30
2019-04-01T13:22:31.095Z,4.00
2019-04-01T13:25:01.547Z,4.57
2019-04-01T13:27:30.145Z,9.53
2019-04-01T13:29:58.600Z,6.03
2019-04-01T13:32:27.186Z,11.47
2019-04-01T13:34:56.670Z,5.40
2019-04-01T13:37:25.290Z,10.33
2019-04-01T13:39:53.935Z,7.03
2019-04-01T13:42:24.888Z,6.50
2019-04-01T13:44:54.365Z,7.50
2019-04-01T13:47:28.550Z,15.93
2019-04-01T13:49:57.399Z,8.07
2019-04-01T13:52:28.784Z,9.13
2019-04-01T13:54:57.325Z,8.43
2019-04-01T13:57:25.961Z,8.70
2019-04-01T13:59:54.540Z,6.60
2019-04-01T14:02:23.366Z,6.27
2019-04-01T14:04:51.986Z,4.57
2019-04-01T14:07:21.339Z,10.57
2019-04-01T14:09:50.836Z,15.70
2019-04-01T14:12:20.206Z,5.17
2019-04-01T14:14:48.925Z,16.17
2019-04-01T14:17:19.125Z,11.67
2019-04-01T14:19:47.678Z,21.20
2019-04-01T14:22:16.315Z,10.50
2019-04-01T14:24:45.627Z,4.70
2019-04-01T14:27:14.161Z,7.47
2019-04-01T14:29:42.805Z,5.40
2019-04-01T14:32:11.440Z,7.57
2019-04-01T14:34:40.859Z,4.13
2019-04-01T14:37:09.889Z,9.87
2019-04-01T14:39:38.756Z,5.93
2019-04-01T14:42:08.493Z,5.97
2019-04-01T14:44:37.284Z,10.33
2019-04-01T14:47:08.954Z,8.53
2019-04-01T14:49:38.746Z,17.13
2019-04-01T14:52:07.443Z,18.23
2019-04-01T14:54:35.960Z,10.00
2019-04-01T14:57:04.629Z,8.73
2019-04-01T14:59:33.207Z,9.07
2019-04-01T15:02:03.592Z,7.13
2019-04-01T15:04:32.085Z,8.53
2019-04-01T15:07:00.738Z,13.00
2019-04-01T15:09:29.425Z,6.47
2019-04-01T15:11:57.973Z,7.47
2019-04-01T15:14:26.540Z,9.03
2019-04-01T15:16:55.080Z,7.13
2019-04-01T15:19:23.777Z,5.73
2019-04-01T15:21:52.566Z,22.07
2019-04-01T15:24:21.237Z,15.37
2019-04-01T15:26:49.788Z,10.40
2019-04-01T15:29:18.429Z,8.03
2019-04-01T15:31:47.115Z,11.10
2019-04-01T15:34:15.653Z,6.00
2019-04-01T15:36:44.166Z,14.87
2019-04-01T15:39:14.410Z,11.40
2019-04-01T15:41:43.090Z,8.37
2019-04-01T15:44:11.743Z,15.77
2019-04-01T15:46:40.288Z,7.30
2019-04-01T15:49:11.241Z,15.30
2019-04-01T15:51:39.112Z,10.43
2019-04-01T15:54:07.806Z,17.63
2019-04-01T15:56:36.421Z,11.73
2019-04-01T15:59:04.961Z,17.63
2019-04-01T16:01:33.745Z,16.03
2019-04-01T16:04:02.371Z,17.20
2019-04-01T16:06:31.221Z,10.33
2019-04-01T16:09:00.021Z,12.80
2019-04-01T16:11:28.539Z,7.63
2019-04-01T16:13:57.087Z,13.57
2019-04-01T16:16:25.802Z,6.93
2019-04-01T16:18:54.406Z,11.30
2019-04-01T16:21:24.557Z,12.83
2019-04-01T16:23:53.620Z,11.47
2019-04-01T16:26:22.153Z,8.90
2019-04-01T16:28:50.791Z,14.43
2019-04-01T16:31:19.435Z,14.67
2019-04-01T16:33:48.051Z,18.13
2019-04-01T16:36:16.599Z,10.30
2019-04-01T16:38:45.160Z,9.50
2019-04-01T16:41:13.718Z,12.13
2019-04-01T16:43:42.258Z,18.57
2019-04-01T16:46:11.354Z,7.20
2019-04-01T16:48:40.768Z,10.73
2019-04-01T16:51:09.494Z,23.77
2019-04-01T16:53:38.199Z,11.10
2019-04-01T16:56:06.885Z,25.70
2019-04-01T16:58:35.570Z,8.90
2019-04-01T17:01:04.299Z,13.83
2019-04-01T17:03:32.909Z,17.43
2019-04-01T17:06:01.385Z,18.73
2019-04-01T17:08:30.039Z,12.20
2019-04-01T17:10:58.725Z,10.80
2019-04-01T17:13:27.488Z,12.10
2019-04-01T17:15:56.182Z,12.97
2019-04-01T17:18:24.790Z,24.77
2019-04-01T17:20:53.327Z,15.43
2019-04-01T17:23:21.983Z,24.57
2019-04-01T17:25:50.517Z,22.23
2019-04-01T17:28:19.177Z,27.97
2019-04-01T17:30:47.887Z,28.00
2019-04-01T17:33:16.587Z,38.40
2019-04-01T17:35:45.319Z,15.50
2019-04-01T17:38:14.008Z,15.87
2019-04-01T17:40:42.777Z,16.70
2019-04-01T17:43:13.542Z,24.83
2019-04-01T17:45:42.014Z,24.37
2019-04-01T17:48:10.715Z,42.30
2019-04-01T17:50:39.384Z,51.07
2019-04-01T17:53:09.601Z,27.83
2019-04-01T17:55:38.385Z,31.20
2019-04-01T17:58:07.224Z,30.63
2019-04-01T18:00:42.001Z,24.77
2019-04-01T18:03:11.002Z,27.90
2019-04-01T18:05:39.784Z,28.67
2019-04-01T18:08:08.355Z,28.27
2019-04-01T18:10:36.960Z,41.47
2019-04-01T18:13:06.740Z,33.67
2019-04-01T18:15:35.311Z,38.20
2019-04-01T18:18:03.994Z,26.77
2019-04-01T18:20:33.447Z,34.30
2019-04-01T18:23:03.001Z,60.07
2019-04-01T18:25:31.549Z,22.20
2019-04-01T18:28:00.093Z,26.80
2019-04-01T18:30:28.798Z,28.33
2019-04-01T18:32:57.369Z,22.07
2019-04-01T18:35:25.829Z,25.17
2019-04-01T18:37:54.424Z,20.07
2019-04-01T18:40:32.624Z,29.43
2019-04-01T18:42:54.923Z,22.87
2019-04-01T18:45:23.562Z,37.10
2019-04-01T18:47:52.174Z,35.23
2019-04-01T18:50:20.856Z,47.63
2019-04-01T18:52:49.483Z,46.10
2019-04-01T18:55:18.105Z,33.77
2019-04-01T18:57:46.637Z,43.60
2019-04-01T19:00:15.488Z,32.00
2019-04-01T19:02:44.023Z,23.27
2019-04-01T19:05:14.175Z,26.43
2019-04-01T19:07:42.729Z,31.73
2019-04-01T19:10:11.824Z,26.23
2019-04-01T19:12:40.448Z,28.37
2019-04-01T19:15:11.594Z,27.33
2019-04-01T19:17:40.154Z,18.60
2019-04-01T19:20:09.038Z,23.40
2019-04-01T19:22:39.202Z,28.90
2019-04-01T19:25:07.947Z,31.30
2019-04-01T19:27:36.569Z,22.27
2019-04-01T19:30:06.763Z,31.37
2019-04-01T19:32:35.678Z,21.87
2019-04-01T19:35:05.729Z,26.97
2019-04-01T19:37:34.409Z,20.80
2019-04-01T19:40:03.606Z,30.73
2019-04-01T19:42:32.081Z,29.47
2019-04-01T19:45:00.693Z,28.87
2019-04-01T19:47:29.344Z,34.93
2019-04-01T19:49:57.892Z,27.63
2019-04-01T19:52:26.645Z,30.50
2019-04-01T19:54:55.403Z,25.13
2019-04-01T19:57:23.936Z,26.67
2019-04-01T19:59:54.305Z,22.10
2019-04-01T20:02:22.757Z,26.13
2019-04-01T20:04:52.082Z,25.77
2019-04-01T20:07:20.734Z,24.40
2019-04-01T20:09:49.478Z,27.23
2019-04-01T20:12:18.093Z,36.60
2019-04-01T20:14:46.729Z,30.97
2019-04-01T20:17:15.464Z,26.60
2019-04-01T20:19:44.062Z,29.83
2019-04-01T20:22:12.754Z,25.37
2019-04-01T20:24:41.369Z,25.53
2019-04-01T20:27:09.913Z,24.40
2019-04-01T20:29:40.110Z,26.37
2019-04-01T20:32:17.278Z,28.93
2019-04-01T20:34:38.936Z,28.20
2019-04-01T20:37:10.525Z,36.60
2019-04-01T20:39:39.074Z,42.23
2019-04-01T20:42:07.761Z,28.57
2019-04-01T20:44:36.381Z,35.67
2019-04-01T20:47:04.992Z,30.30
2019-04-01T20:49:33.639Z,31.07
2019-04-01T20:52:02.254Z,28.13
2019-04-01T20:54:30.725Z,28.13
2019-04-01T20:56:59.369Z,26.83
2019-04-01T20:59:27.924Z,32.23
2019-04-01T21:01:56.606Z,28.20
2019-04-01T21:04:26.953Z,25.03
2019-04-01T21:06:55.518Z,30.63
2019-04-01T21:09:24.147Z,26.10
2019-04-01T21:11:52.790Z,25.17
2019-04-01T21:14:22.647Z,21.80
2019-04-01T21:16:52.495Z,28.97
2019-04-01T21:19:21.115Z,25.03
2019-04-01T21:21:49.844Z,21.47
2019-04-01T21:24:18.323Z,22.63
2019-04-01T21:26:46.869Z,21.43
2019-04-01T21:29:16.137Z,19.90
2019-04-01T21:31:44.821Z,19.60
2019-04-01T21:34:13.493Z,20.27
2019-04-01T21:36:42.037Z,17.30
2019-04-01T21:39:10.674Z,17.53
2019-04-01T21:41:39.209Z,21.03
2019-04-01T21:44:07.914Z,17.37
2019-04-01T21:46:36.549Z,25.73
2019-04-01T21:49:05.233Z,15.83
2019-04-01T21:51:33.846Z,17.33
2019-04-01T21:54:02.487Z,20.70
2019-04-01T21:56:31.035Z,23.50
2019-04-01T21:58:59.641Z,21.90
2019-04-01T22:01:28.426Z,18.00
2019-04-01T22:03:56.968Z,19.40
2019-04-01T22:06:25.654Z,22.57
2019-04-01T22:08:54.220Z,24.03
2019-04-01T22:11:22.843Z,25.50
2019-04-01T22:13:51.369Z,18.47
2019-04-01T22:16:19.987Z,23.00
2019-04-01T22:18:48.606Z,22.77
2019-04-01T22:21:17.188Z,27.60
2019-04-01T22:23:45.802Z,24.47
2019-04-01T22:26:14.349Z,23.10
2019-04-01T22:28:42.892Z,22.57
2019-04-01T22:31:11.473Z,24.23
2019-04-01T22:33:40.234Z,24.03
2019-04-01T22:36:09.225Z,24.23
2019-04-01T22:38:37.809Z,28.60
2019-04-01T22:41:06.421Z,25.33
2019-04-01T22:43:34.966Z,25.37
2019-04-01T22:46:03.581Z,21.60
2019-04-01T22:48:32.201Z,38.30
2019-04-01T22:51:00.742Z,33.47
2019-04-01T22:53:29.309Z,21.80
2019-04-01T22:55:57.850Z,22.60
2019-04-01T22:58:26.460Z,24.37
2019-04-01T23:00:55.671Z,22.60
2019-04-01T23:03:24.215Z,37.47
2019-04-01T23:05:55.455Z,22.97
2019-04-01T23:08:24.171Z,26.47
2019-04-01T23:10:52.621Z,23.57
2019-04-01T23:13:21.224Z,23.33
2019-04-01T23:15:49.803Z,28.87
2019-04-01T23:18:18.340Z,25.90
2019-04-01T23:20:46.945Z,25.33
2019-04-01T23:23:15.528Z,25.27
2019-04-01T23:25:43.999Z,24.53
2019-04-01T23:28:12.597Z,23.73
2019-04-01T23:30:41.169Z,24.87
2019-04-01T23:33:09.707Z,24.93
2019-04-01T23:35:38.175Z,24.63
2019-04-01T23:38:07.241Z,22.57
2019-04-01T23:40:36.070Z,20.90
2019-04-01T23:43:04.606Z,21.57
2019-04-01T23:45:33.181Z,20.97
2019-04-01T23:48:01.723Z,23.13
2019-04-01T23:50:30.265Z,22.17
2019-04-01T23:52:58.922Z,24.20
2019-04-01T23:55:29.023Z,24.10
2019-04-01T23:57:57.712Z,20.77
